Tropical Cyclones
[Index]
Main Index Home Page Stock Weather Photos Extreme Storms Discussion Storm News and Storm Chasing Reports Tropical Cyclones / Hurricanes / Typhoons Weather Data and Links Wild Fires / Bushfires Weather Observation Techniques Weather Picture Catalogue Tornado Pictures and Reports Stock Video Footage and DVDs for sale
Season 2003-2004 Tropical Cyclone FRITZ Track Map
Season 2003-2004 Summaries: [BoM-AU] [JTWC-AU] [JTWC-SIO] [JTWC-SPAC] [JTWC-SH]
<<- Previous TC | BoM 2003-2004 Season | Next TC ->>

click for intensity scale information  Lat/long Grid: Show Hide

 Date Labels: Show Hide

Bureau of Meteorology Tropical Cyclone Data

Name: FRITZ
Number: 873 / 200304_04

10 Feb 2004 06:00 UTC to 15 Feb 2004 00:00 UTC

    date/time    lat    long    hPa   cat  kts
2004-02-10 06   13.8   146.7   1000         30          
2004-02-10 12   14.3   145.4    995    1    35          
2004-02-10 18   14.6   144.3    997         35          
2004-02-11 00   15.5   143.4    999         25          
2004-02-11 06   16.2   142.4    999         25          
2004-02-11 12   16.4   141.3    996         30          
2004-02-11 18   16.6   140.6    990    1    40          
2004-02-12 00   16.7   139.7    985    2    50          
2004-02-12 06   16.4   138.9    992    1    40          
2004-02-12 12   16.7   138.8    992    1    40          
2004-02-12 18   17.0   137.3    993    1    30          
2004-02-13 00   17.1   136.3    996         25          
2004-02-13 06   17.6   135.6    994    1    25          
2004-02-13 12   18.0   134.1    994    1    25          
2004-02-13 18   18.4   132.5    994    1    25          
2004-02-14 00   19.1   131.3    994    1    25          
2004-02-14 06   19.7   130.1    992    1    25          
2004-02-14 12   19.8   128.9    992    1    25          
2004-02-14 18   20.4   127.7    994    1    20          
2004-02-15 00   21.2   126.3    996         20          
Winds are 10-min average.

Tropical cyclone tracks developed by Michael Bath using data from the Bureau of Meteorology and Google Maps.


[Australian Severe Weather index] [Copyright Notice] [Email Contacts] [Search This Site] [Privacy Policy]
Document: tropical_cyclone_fritz.htm Updated: 29 June 2017